sensor_id;sensor_type;location;lat;lon;timestamp;P1;durP1;ratioP1;P2;durP2;ratioP2
5357;SDS011;2702;51.014;7.170;2022-12-20T00:01:08;3.37;;;3.17;;
5357;SDS011;2702;51.014;7.170;2022-12-20T00:03:36;3.80;;;3.47;;
5357;SDS011;2702;51.014;7.170;2022-12-20T00:06:02;3.70;;;3.40;;
5357;SDS011;2702;51.014;7.170;2022-12-20T00:08:30;4.27;;;3.30;;
5357;SDS011;2702;51.014;7.170;2022-12-20T00:10:58;5.20;;;3.90;;
5357;SDS011;2702;51.014;7.170;2022-12-20T00:13:26;3.50;;;3.20;;
5357;SDS011;2702;51.014;7.170;2022-12-20T00:16:08;3.77;;;3.47;;
5357;SDS011;2702;51.014;7.170;2022-12-20T00:18:37;4.03;;;3.67;;
5357;SDS011;2702;51.014;7.170;2022-12-20T00:21:05;6.20;;;3.67;;
5357;SDS011;2702;51.014;7.170;2022-12-20T00:23:33;3.20;;;3.00;;
5357;SDS011;2702;51.014;7.170;2022-12-20T00:26:10;5.80;;;4.10;;
5357;SDS011;2702;51.014;7.170;2022-12-20T00:28:38;4.40;;;3.67;;
5357;SDS011;2702;51.014;7.170;2022-12-20T00:31:06;3.90;;;3.60;;
5357;SDS011;2702;51.014;7.170;2022-12-20T00:33:34;4.97;;;3.77;;
5357;SDS011;2702;51.014;7.170;2022-12-20T00:36:01;4.73;;;3.93;;
5357;SDS011;2702;51.014;7.170;2022-12-20T00:38:28;4.10;;;3.50;;
5357;SDS011;2702;51.014;7.170;2022-12-20T00:41:01;4.00;;;3.70;;
5357;SDS011;2702;51.014;7.170;2022-12-20T00:43:30;4.40;;;4.00;;
5357;SDS011;2702;51.014;7.170;2022-12-20T00:45:56;4.10;;;3.80;;
5357;SDS011;2702;51.014;7.170;2022-12-20T00:48:23;4.67;;;4.27;;
5357;SDS011;2702;51.014;7.170;2022-12-20T00:50:50;4.37;;;3.97;;
5357;SDS011;2702;51.014;7.170;2022-12-20T00:53:17;6.53;;;4.10;;
5357;SDS011;2702;51.014;7.170;2022-12-20T00:55:43;4.93;;;4.10;;
5357;SDS011;2702;51.014;7.170;2022-12-20T00:58:10;5.23;;;4.73;;
5357;SDS011;2702;51.014;7.170;2022-12-20T01:00:37;5.23;;;4.30;;
5357;SDS011;2702;51.014;7.170;2022-12-20T01:03:04;4.23;;;3.83;;
5357;SDS011;2702;51.014;7.170;2022-12-20T01:05:31;5.43;;;3.97;;
5357;SDS011;2702;51.014;7.170;2022-12-20T01:07:57;3.80;;;3.40;;
5357;SDS011;2702;51.014;7.170;2022-12-20T01:10:23;4.70;;;4.13;;
5357;SDS011;2702;51.014;7.170;2022-12-20T01:12:49;4.83;;;4.37;;
5357;SDS011;2702;51.014;7.170;2022-12-20T01:15:15;4.47;;;4.03;;
5357;SDS011;2702;51.014;7.170;2022-12-20T01:17:41;4.63;;;4.17;;
5357;SDS011;2702;51.014;7.170;2022-12-20T01:20:07;4.63;;;4.23;;
5357;SDS011;2702;51.014;7.170;2022-12-20T01:22:33;4.70;;;4.30;;
5357;SDS011;2702;51.014;7.170;2022-12-20T01:24:59;6.30;;;4.50;;
5357;SDS011;2702;51.014;7.170;2022-12-20T01:27:25;6.40;;;5.30;;
5357;SDS011;2702;51.014;7.170;2022-12-20T01:29:51;5.10;;;4.60;;
5357;SDS011;2702;51.014;7.170;2022-12-20T01:32:17;5.93;;;4.10;;
5357;SDS011;2702;51.014;7.170;2022-12-20T01:34:42;7.60;;;4.80;;
5357;SDS011;2702;51.014;7.170;2022-12-20T01:37:08;5.50;;;4.90;;
5357;SDS011;2702;51.014;7.170;2022-12-20T01:39:34;5.17;;;4.67;;
5357;SDS011;2702;51.014;7.170;2022-12-20T01:42:00;5.57;;;5.17;;
5357;SDS011;2702;51.014;7.170;2022-12-20T01:46:52;6.20;;;5.60;;
5357;SDS011;2702;51.014;7.170;2022-12-20T01:49:26;6.33;;;5.73;;
5357;SDS011;2702;51.014;7.170;2022-12-20T01:54:43;6.47;;;5.87;;
5357;SDS011;2702;51.014;7.170;2022-12-20T01:57:17;6.60;;;5.80;;
5357;SDS011;2702;51.014;7.170;2022-12-20T01:59:49;6.13;;;5.63;;
5357;SDS011;2702;51.014;7.170;2022-12-20T02:02:16;6.37;;;5.77;;
5357;SDS011;2702;51.014;7.170;2022-12-20T02:04:43;6.90;;;6.03;;
5357;SDS011;2702;51.014;7.170;2022-12-20T02:07:09;6.03;;;5.53;;
5357;SDS011;2702;51.014;7.170;2022-12-20T02:09:39;6.17;;;5.60;;
5357;SDS011;2702;51.014;7.170;2022-12-20T02:12:07;6.90;;;6.07;;
5357;SDS011;2702;51.014;7.170;2022-12-20T02:15:11;5.80;;;5.30;;
5357;SDS011;2702;51.014;7.170;2022-12-20T02:17:44;6.90;;;5.37;;
5357;SDS011;2702;51.014;7.170;2022-12-20T02:20:41;6.30;;;5.63;;
5357;SDS011;2702;51.014;7.170;2022-12-20T02:34:25;6.70;;;6.00;;
5357;SDS011;2702;51.014;7.170;2022-12-20T02:36:53;7.37;;;6.67;;
5357;SDS011;2702;51.014;7.170;2022-12-20T02:39:19;7.67;;;6.23;;
5357;SDS011;2702;51.014;7.170;2022-12-20T02:41:48;7.40;;;6.60;;
5357;SDS011;2702;51.014;7.170;2022-12-20T02:44:18;6.80;;;6.30;;
5357;SDS011;2702;51.014;7.170;2022-12-20T02:47:04;7.67;;;6.97;;
5357;SDS011;2702;51.014;7.170;2022-12-20T02:49:34;7.60;;;6.90;;
5357;SDS011;2702;51.014;7.170;2022-12-20T02:52:05;8.33;;;6.73;;
5357;SDS011;2702;51.014;7.170;2022-12-20T02:54:33;8.60;;;6.90;;
5357;SDS011;2702;51.014;7.170;2022-12-20T02:57:03;9.93;;;7.13;;
5357;SDS011;2702;51.014;7.170;2022-12-20T02:59:44;10.03;;;6.33;;
5357;SDS011;2702;51.014;7.170;2022-12-20T03:02:42;8.83;;;7.93;;
5357;SDS011;2702;51.014;7.170;2022-12-20T03:05:28;7.57;;;6.80;;
5357;SDS011;2702;51.014;7.170;2022-12-20T03:07:57;7.70;;;6.90;;
5357;SDS011;2702;51.014;7.170;2022-12-20T03:10:23;6.70;;;6.10;;
5357;SDS011;2702;51.014;7.170;2022-12-20T03:12:49;7.77;;;6.83;;
5357;SDS011;2702;51.014;7.170;2022-12-20T03:15:15;7.90;;;6.80;;
5357;SDS011;2702;51.014;7.170;2022-12-20T03:17:41;7.20;;;6.50;;
5357;SDS011;2702;51.014;7.170;2022-12-20T03:20:07;9.00;;;7.60;;
5357;SDS011;2702;51.014;7.170;2022-12-20T03:22:37;7.10;;;6.50;;
5357;SDS011;2702;51.014;7.170;2022-12-20T03:25:03;6.90;;;6.20;;
5357;SDS011;2702;51.014;7.170;2022-12-20T03:27:29;10.30;;;7.17;;
5357;SDS011;2702;51.014;7.170;2022-12-20T03:29:55;8.77;;;7.87;;
5357;SDS011;2702;51.014;7.170;2022-12-20T03:32:21;8.93;;;6.60;;
5357;SDS011;2702;51.014;7.170;2022-12-20T03:34:47;8.03;;;7.00;;
5357;SDS011;2702;51.014;7.170;2022-12-20T03:37:12;7.37;;;6.60;;
5357;SDS011;2702;51.014;7.170;2022-12-20T03:39:39;6.43;;;5.83;;
5357;SDS011;2702;51.014;7.170;2022-12-20T03:42:05;10.20;;;6.50;;
5357;SDS011;2702;51.014;7.170;2022-12-20T03:44:31;6.03;;;5.43;;
5357;SDS011;2702;51.014;7.170;2022-12-20T03:46:57;8.80;;;6.73;;
5357;SDS011;2702;51.014;7.170;2022-12-20T03:49:22;7.43;;;6.60;;
5357;SDS011;2702;51.014;7.170;2022-12-20T03:51:48;7.07;;;6.37;;
5357;SDS011;2702;51.014;7.170;2022-12-20T03:54:14;7.40;;;6.70;;
5357;SDS011;2702;51.014;7.170;2022-12-20T03:56:40;6.80;;;5.70;;
5357;SDS011;2702;51.014;7.170;2022-12-20T03:59:06;8.63;;;6.60;;
5357;SDS011;2702;51.014;7.170;2022-12-20T04:01:31;5.97;;;5.47;;
5357;SDS011;2702;51.014;7.170;2022-12-20T04:04:01;6.87;;;6.27;;
5357;SDS011;2702;51.014;7.170;2022-12-20T04:06:27;6.80;;;6.10;;
5357;SDS011;2702;51.014;7.170;2022-12-20T04:08:53;7.37;;;6.03;;
5357;SDS011;2702;51.014;7.170;2022-12-20T04:11:19;7.67;;;5.73;;
5357;SDS011;2702;51.014;7.170;2022-12-20T04:13:46;6.13;;;5.53;;
5357;SDS011;2702;51.014;7.170;2022-12-20T04:16:17;6.33;;;5.73;;
5357;SDS011;2702;51.014;7.170;2022-12-20T04:18:45;6.30;;;5.70;;
5357;SDS011;2702;51.014;7.170;2022-12-20T04:21:11;7.80;;;5.60;;
5357;SDS011;2702;51.014;7.170;2022-12-20T04:23:38;6.80;;;6.10;;
5357;SDS011;2702;51.014;7.170;2022-12-20T04:26:06;6.53;;;5.93;;
5357;SDS011;2702;51.014;7.170;2022-12-20T04:28:34;6.93;;;5.70;;
5357;SDS011;2702;51.014;7.170;2022-12-20T04:31:00;7.37;;;6.23;;
5357;SDS011;2702;51.014;7.170;2022-12-20T04:33:26;6.37;;;5.77;;
5357;SDS011;2702;51.014;7.170;2022-12-20T04:35:53;7.00;;;6.30;;
5357;SDS011;2702;51.014;7.170;2022-12-20T04:38:20;6.40;;;5.80;;
5357;SDS011;2702;51.014;7.170;2022-12-20T04:40:49;6.17;;;5.20;;
5357;SDS011;2702;51.014;7.170;2022-12-20T04:43:17;6.40;;;5.80;;
5357;SDS011;2702;51.014;7.170;2022-12-20T04:45:44;6.27;;;5.70;;
5357;SDS011;2702;51.014;7.170;2022-12-20T04:48:13;7.80;;;6.40;;
5357;SDS011;2702;51.014;7.170;2022-12-20T04:50:39;6.67;;;6.07;;
5357;SDS011;2702;51.014;7.170;2022-12-20T04:53:07;6.90;;;6.20;;
5357;SDS011;2702;51.014;7.170;2022-12-20T04:55:54;7.70;;;6.57;;
5357;SDS011;2702;51.014;7.170;2022-12-20T04:58:19;6.57;;;6.07;;
5357;SDS011;2702;51.014;7.170;2022-12-20T05:00:45;7.90;;;5.60;;
5357;SDS011;2702;51.014;7.170;2022-12-20T05:03:11;8.17;;;6.40;;
5357;SDS011;2702;51.014;7.170;2022-12-20T05:05:37;6.67;;;6.07;;
5357;SDS011;2702;51.014;7.170;2022-12-20T05:08:03;6.77;;;6.17;;
5357;SDS011;2702;51.014;7.170;2022-12-20T05:10:29;7.77;;;6.27;;
5357;SDS011;2702;51.014;7.170;2022-12-20T05:12:55;7.30;;;6.40;;
5357;SDS011;2702;51.014;7.170;2022-12-20T05:15:20;6.93;;;6.23;;
5357;SDS011;2702;51.014;7.170;2022-12-20T05:17:46;6.53;;;5.93;;
5357;SDS011;2702;51.014;7.170;2022-12-20T05:20:12;6.83;;;6.13;;
5357;SDS011;2702;51.014;7.170;2022-12-20T05:22:38;7.13;;;6.43;;
5357;SDS011;2702;51.014;7.170;2022-12-20T05:25:22;7.37;;;5.23;;
5357;SDS011;2702;51.014;7.170;2022-12-20T05:28:06;8.83;;;6.47;;
5357;SDS011;2702;51.014;7.170;2022-12-20T05:30:32;6.93;;;6.23;;
5357;SDS011;2702;51.014;7.170;2022-12-20T05:32:58;6.87;;;5.77;;
5357;SDS011;2702;51.014;7.170;2022-12-20T05:35:24;7.80;;;6.40;;
5357;SDS011;2702;51.014;7.170;2022-12-20T05:37:50;7.50;;;6.30;;
5357;SDS011;2702;51.014;7.170;2022-12-20T05:40:15;9.13;;;6.60;;
5357;SDS011;2702;51.014;7.170;2022-12-20T05:42:42;7.33;;;6.63;;
5357;SDS011;2702;51.014;7.170;2022-12-20T05:45:09;7.20;;;6.20;;
5357;SDS011;2702;51.014;7.170;2022-12-20T05:47:35;8.00;;;6.87;;
5357;SDS011;2702;51.014;7.170;2022-12-20T05:50:02;7.73;;;6.50;;
5357;SDS011;2702;51.014;7.170;2022-12-20T05:52:28;6.60;;;6.00;;
5357;SDS011;2702;51.014;7.170;2022-12-20T05:54:54;7.43;;;6.63;;
5357;SDS011;2702;51.014;7.170;2022-12-20T05:57:20;6.77;;;6.17;;
5357;SDS011;2702;51.014;7.170;2022-12-20T05:59:46;8.10;;;5.83;;
5357;SDS011;2702;51.014;7.170;2022-12-20T06:02:13;7.43;;;6.83;;
5357;SDS011;2702;51.014;7.170;2022-12-20T06:04:38;7.10;;;6.27;;
5357;SDS011;2702;51.014;7.170;2022-12-20T06:07:04;7.70;;;6.80;;
5357;SDS011;2702;51.014;7.170;2022-12-20T06:09:31;7.10;;;6.40;;
5357;SDS011;2702;51.014;7.170;2022-12-20T06:11:57;6.93;;;6.10;;
5357;SDS011;2702;51.014;7.170;2022-12-20T06:14:23;8.03;;;7.10;;
5357;SDS011;2702;51.014;7.170;2022-12-20T06:16:49;6.73;;;6.03;;
5357;SDS011;2702;51.014;7.170;2022-12-20T06:19:15;7.57;;;6.80;;
5357;SDS011;2702;51.014;7.170;2022-12-20T06:21:40;9.30;;;6.57;;
5357;SDS011;2702;51.014;7.170;2022-12-20T06:24:06;7.10;;;6.40;;
5357;SDS011;2702;51.014;7.170;2022-12-20T06:26:32;7.63;;;6.90;;
5357;SDS011;2702;51.014;7.170;2022-12-20T06:29:02;8.20;;;6.53;;
5357;SDS011;2702;51.014;7.170;2022-12-20T06:31:31;6.90;;;6.20;;
5357;SDS011;2702;51.014;7.170;2022-12-20T06:33:58;12.50;;;7.10;;
5357;SDS011;2702;51.014;7.170;2022-12-20T06:36:24;8.03;;;7.33;;
5357;SDS011;2702;51.014;7.170;2022-12-20T06:38:50;9.13;;;8.17;;
5357;SDS011;2702;51.014;7.170;2022-12-20T06:41:16;8.77;;;6.83;;
5357;SDS011;2702;51.014;7.170;2022-12-20T06:43:42;7.73;;;6.93;;
5357;SDS011;2702;51.014;7.170;2022-12-20T06:46:08;7.40;;;6.70;;
5357;SDS011;2702;51.014;7.170;2022-12-20T06:48:34;8.30;;;7.40;;
5357;SDS011;2702;51.014;7.170;2022-12-20T06:51:00;7.67;;;6.63;;
5357;SDS011;2702;51.014;7.170;2022-12-20T06:53:26;9.17;;;6.13;;
5357;SDS011;2702;51.014;7.170;2022-12-20T06:55:52;8.20;;;6.90;;
5357;SDS011;2702;51.014;7.170;2022-12-20T06:58:18;7.53;;;6.40;;
5357;SDS011;2702;51.014;7.170;2022-12-20T07:00:44;7.63;;;6.87;;
5357;SDS011;2702;51.014;7.170;2022-12-20T07:03:11;7.93;;;7.13;;
5357;SDS011;2702;51.014;7.170;2022-12-20T07:05:37;7.30;;;6.50;;
5357;SDS011;2702;51.014;7.170;2022-12-20T07:08:03;7.40;;;6.70;;
5357;SDS011;2702;51.014;7.170;2022-12-20T07:10:30;6.77;;;6.00;;
5357;SDS011;2702;51.014;7.170;2022-12-20T07:12:59;9.33;;;6.60;;
5357;SDS011;2702;51.014;7.170;2022-12-20T07:15:25;7.17;;;6.33;;
5357;SDS011;2702;51.014;7.170;2022-12-20T07:17:51;6.93;;;6.23;;
5357;SDS011;2702;51.014;7.170;2022-12-20T07:20:17;7.27;;;6.57;;
5357;SDS011;2702;51.014;7.170;2022-12-20T07:22:43;6.77;;;6.17;;
5357;SDS011;2702;51.014;7.170;2022-12-20T07:25:12;9.97;;;6.13;;
5357;SDS011;2702;51.014;7.170;2022-12-20T07:27:38;7.77;;;6.60;;
5357;SDS011;2702;51.014;7.170;2022-12-20T07:30:04;7.50;;;6.60;;
5357;SDS011;2702;51.014;7.170;2022-12-20T07:32:30;7.00;;;6.33;;
5357;SDS011;2702;51.014;7.170;2022-12-20T07:34:56;6.40;;;5.80;;
5357;SDS011;2702;51.014;7.170;2022-12-20T07:37:22;6.67;;;6.07;;
5357;SDS011;2702;51.014;7.170;2022-12-20T07:39:48;8.30;;;6.80;;
5357;SDS011;2702;51.014;7.170;2022-12-20T07:42:14;6.63;;;6.03;;
5357;SDS011;2702;51.014;7.170;2022-12-20T07:44:40;8.30;;;6.43;;
5357;SDS011;2702;51.014;7.170;2022-12-20T07:47:06;6.47;;;5.83;;
5357;SDS011;2702;51.014;7.170;2022-12-20T07:49:34;6.23;;;5.63;;
5357;SDS011;2702;51.014;7.170;2022-12-20T07:52:00;6.73;;;5.73;;
5357;SDS011;2702;51.014;7.170;2022-12-20T07:54:47;7.20;;;5.53;;
5357;SDS011;2702;51.014;7.170;2022-12-20T07:57:21;6.63;;;5.70;;
5357;SDS011;2702;51.014;7.170;2022-12-20T07:59:56;6.00;;;5.40;;
5357;SDS011;2702;51.014;7.170;2022-12-20T08:02:26;5.87;;;5.40;;
5357;SDS011;2702;51.014;7.170;2022-12-20T08:04:56;8.00;;;5.40;;
5357;SDS011;2702;51.014;7.170;2022-12-20T08:07:23;6.90;;;5.90;;
5357;SDS011;2702;51.014;7.170;2022-12-20T08:09:48;6.43;;;5.87;;
5357;SDS011;2702;51.014;7.170;2022-12-20T08:12:16;6.33;;;5.47;;
5357;SDS011;2702;51.014;7.170;2022-12-20T08:14:43;6.03;;;5.53;;
5357;SDS011;2702;51.014;7.170;2022-12-20T08:17:09;6.07;;;5.47;;
5357;SDS011;2702;51.014;7.170;2022-12-20T08:19:36;5.80;;;5.30;;
5357;SDS011;2702;51.014;7.170;2022-12-20T08:22:03;7.43;;;5.70;;
5357;SDS011;2702;51.014;7.170;2022-12-20T08:24:30;6.63;;;5.97;;
5357;SDS011;2702;51.014;7.170;2022-12-20T08:26:57;6.73;;;6.00;;
5357;SDS011;2702;51.014;7.170;2022-12-20T08:29:23;7.10;;;6.40;;
5357;SDS011;2702;51.014;7.170;2022-12-20T08:31:49;6.70;;;6.00;;
5357;SDS011;2702;51.014;7.170;2022-12-20T08:34:16;9.57;;;5.97;;
5357;SDS011;2702;51.014;7.170;2022-12-20T08:36:42;8.60;;;6.30;;
5357;SDS011;2702;51.014;7.170;2022-12-20T08:39:08;6.70;;;6.10;;
5357;SDS011;2702;51.014;7.170;2022-12-20T08:41:35;6.30;;;5.70;;
5357;SDS011;2702;51.014;7.170;2022-12-20T08:44:05;7.10;;;6.50;;
5357;SDS011;2702;51.014;7.170;2022-12-20T08:46:31;6.47;;;5.80;;
5357;SDS011;2702;51.014;7.170;2022-12-20T08:48:56;6.90;;;5.73;;
5357;SDS011;2702;51.014;7.170;2022-12-20T08:51:22;6.53;;;5.93;;
5357;SDS011;2702;51.014;7.170;2022-12-20T08:53:48;6.80;;;6.10;;
5357;SDS011;2702;51.014;7.170;2022-12-20T08:56:15;7.20;;;6.50;;
5357;SDS011;2702;51.014;7.170;2022-12-20T08:58:42;6.20;;;5.60;;
5357;SDS011;2702;51.014;7.170;2022-12-20T09:01:10;6.93;;;6.30;;
5357;SDS011;2702;51.014;7.170;2022-12-20T09:03:38;8.93;;;5.90;;
5357;SDS011;2702;51.014;7.170;2022-12-20T09:06:06;8.47;;;6.63;;
5357;SDS011;2702;51.014;7.170;2022-12-20T09:08:33;10.53;;;6.60;;
5357;SDS011;2702;51.014;7.170;2022-12-20T09:11:07;6.33;;;5.67;;
5357;SDS011;2702;51.014;7.170;2022-12-20T09:13:36;6.33;;;5.40;;
5357;SDS011;2702;51.014;7.170;2022-12-20T09:16:04;8.13;;;7.00;;
5357;SDS011;2702;51.014;7.170;2022-12-20T09:18:31;6.47;;;5.87;;
5357;SDS011;2702;51.014;7.170;2022-12-20T09:20:58;7.23;;;5.73;;
5357;SDS011;2702;51.014;7.170;2022-12-20T09:23:25;7.80;;;6.07;;
5357;SDS011;2702;51.014;7.170;2022-12-20T09:25:52;6.70;;;6.10;;
5357;SDS011;2702;51.014;7.170;2022-12-20T09:28:18;6.90;;;6.10;;
5357;SDS011;2702;51.014;7.170;2022-12-20T09:30:44;6.10;;;5.50;;
5357;SDS011;2702;51.014;7.170;2022-12-20T09:33:10;6.20;;;5.00;;
5357;SDS011;2702;51.014;7.170;2022-12-20T09:35:36;5.90;;;5.30;;
5357;SDS011;2702;51.014;7.170;2022-12-20T09:38:08;7.60;;;5.33;;
5357;SDS011;2702;51.014;7.170;2022-12-20T09:40:34;8.30;;;5.83;;
5357;SDS011;2702;51.014;7.170;2022-12-20T09:43:03;6.20;;;5.60;;
5357;SDS011;2702;51.014;7.170;2022-12-20T09:45:31;6.30;;;5.40;;
5357;SDS011;2702;51.014;7.170;2022-12-20T09:48:01;5.77;;;5.33;;
5357;SDS011;2702;51.014;7.170;2022-12-20T09:50:38;6.40;;;5.80;;
5357;SDS011;2702;51.014;7.170;2022-12-20T09:56:22;6.57;;;5.23;;
5357;SDS011;2702;51.014;7.170;2022-12-20T09:59:09;5.73;;;5.13;;
5357;SDS011;2702;51.014;7.170;2022-12-20T10:01:44;5.67;;;4.90;;
5357;SDS011;2702;51.014;7.170;2022-12-20T10:04:21;7.77;;;4.90;;
5357;SDS011;2702;51.014;7.170;2022-12-20T10:12:33;10.90;;;7.20;;
5357;SDS011;2702;51.014;7.170;2022-12-20T10:17:53;5.47;;;4.63;;
5357;SDS011;2702;51.014;7.170;2022-12-20T10:23:03;6.30;;;4.60;;
5357;SDS011;2702;51.014;7.170;2022-12-20T10:25:41;6.73;;;4.23;;
5357;SDS011;2702;51.014;7.170;2022-12-20T10:28:12;5.53;;;4.70;;
5357;SDS011;2702;51.014;7.170;2022-12-20T10:30:40;5.40;;;4.90;;
5357;SDS011;2702;51.014;7.170;2022-12-20T10:33:12;6.70;;;4.93;;
5357;SDS011;2702;51.014;7.170;2022-12-20T10:35:47;5.30;;;4.80;;
5357;SDS011;2702;51.014;7.170;2022-12-20T10:38:14;5.23;;;4.70;;
5357;SDS011;2702;51.014;7.170;2022-12-20T10:40:58;4.80;;;4.30;;
5357;SDS011;2702;51.014;7.170;2022-12-20T10:43:26;4.23;;;3.83;;
5357;SDS011;2702;51.014;7.170;2022-12-20T10:46:05;8.90;;;4.80;;
5357;SDS011;2702;51.014;7.170;2022-12-20T10:48:39;5.30;;;4.80;;
5357;SDS011;2702;51.014;7.170;2022-12-20T10:53:37;5.87;;;4.83;;
5357;SDS011;2702;51.014;7.170;2022-12-20T11:01:32;7.97;;;5.73;;
5357;SDS011;2702;51.014;7.170;2022-12-20T11:04:05;6.10;;;5.10;;
5357;SDS011;2702;51.014;7.170;2022-12-20T11:06:45;5.60;;;4.93;;
5357;SDS011;2702;51.014;7.170;2022-12-20T11:14:40;5.77;;;5.17;;
5357;SDS011;2702;51.014;7.170;2022-12-20T11:19:54;7.03;;;4.93;;
5357;SDS011;2702;51.014;7.170;2022-12-20T11:28:25;5.67;;;4.60;;
5357;SDS011;2702;51.014;7.170;2022-12-20T11:36:24;5.10;;;4.30;;
5357;SDS011;2702;51.014;7.170;2022-12-20T11:41:44;6.07;;;4.00;;
5357;SDS011;2702;51.014;7.170;2022-12-20T11:47:04;4.30;;;3.90;;
5357;SDS011;2702;51.014;7.170;2022-12-20T11:52:38;4.63;;;4.10;;
5357;SDS011;2702;51.014;7.170;2022-12-20T11:55:21;5.07;;;4.30;;
5357;SDS011;2702;51.014;7.170;2022-12-20T11:57:56;4.53;;;3.90;;
5357;SDS011;2702;51.014;7.170;2022-12-20T12:00:31;4.43;;;4.00;;
5357;SDS011;2702;51.014;7.170;2022-12-20T12:03:02;5.80;;;4.07;;
5357;SDS011;2702;51.014;7.170;2022-12-20T12:08:19;4.60;;;4.20;;
5357;SDS011;2702;51.014;7.170;2022-12-20T12:10:59;3.70;;;3.40;;
5357;SDS011;2702;51.014;7.170;2022-12-20T12:13:42;4.30;;;4.00;;
5357;SDS011;2702;51.014;7.170;2022-12-20T12:18:48;4.60;;;4.10;;
5357;SDS011;2702;51.014;7.170;2022-12-20T12:24:04;5.30;;;3.93;;
5357;SDS011;2702;51.014;7.170;2022-12-20T12:26:46;6.33;;;4.07;;
5357;SDS011;2702;51.014;7.170;2022-12-20T12:29:12;5.27;;;3.90;;
5357;SDS011;2702;51.014;7.170;2022-12-20T12:31:50;5.03;;;4.03;;
5357;SDS011;2702;51.014;7.170;2022-12-20T12:34:28;4.90;;;4.50;;
5357;SDS011;2702;51.014;7.170;2022-12-20T12:45:19;4.03;;;3.30;;
5357;SDS011;2702;51.014;7.170;2022-12-20T12:50:27;4.47;;;4.07;;
5357;SDS011;2702;51.014;7.170;2022-12-20T12:52:57;4.70;;;4.30;;
5357;SDS011;2702;51.014;7.170;2022-12-20T13:00:54;5.00;;;4.60;;
5357;SDS011;2702;51.014;7.170;2022-12-20T13:03:42;5.67;;;4.30;;
5357;SDS011;2702;51.014;7.170;2022-12-20T13:11:34;5.33;;;4.87;;
5357;SDS011;2702;51.014;7.170;2022-12-20T13:19:37;6.97;;;3.30;;
5357;SDS011;2702;51.014;7.170;2022-12-20T13:27:03;4.77;;;4.27;;
5357;SDS011;2702;51.014;7.170;2022-12-20T13:29:52;4.00;;;3.70;;
5357;SDS011;2702;51.014;7.170;2022-12-20T13:37:55;6.90;;;3.63;;
5357;SDS011;2702;51.014;7.170;2022-12-20T13:40:47;5.67;;;3.90;;
5357;SDS011;2702;51.014;7.170;2022-12-20T13:45:44;5.20;;;4.00;;
5357;SDS011;2702;51.014;7.170;2022-12-20T13:48:19;4.33;;;3.93;;
5357;SDS011;2702;51.014;7.170;2022-12-20T13:50:57;3.90;;;3.50;;
5357;SDS011;2702;51.014;7.170;2022-12-20T13:53:26;4.47;;;3.67;;
5357;SDS011;2702;51.014;7.170;2022-12-20T13:55:53;4.63;;;3.83;;
5357;SDS011;2702;51.014;7.170;2022-12-20T13:58:23;3.60;;;3.30;;
5357;SDS011;2702;51.014;7.170;2022-12-20T14:00:52;6.53;;;3.50;;
5357;SDS011;2702;51.014;7.170;2022-12-20T14:03:26;3.97;;;3.67;;
5357;SDS011;2702;51.014;7.170;2022-12-20T14:05:57;4.00;;;3.70;;
5357;SDS011;2702;51.014;7.170;2022-12-20T14:08:31;4.50;;;3.53;;
5357;SDS011;2702;51.014;7.170;2022-12-20T14:11:11;5.07;;;3.40;;
5357;SDS011;2702;51.014;7.170;2022-12-20T14:13:39;3.97;;;3.63;;
5357;SDS011;2702;51.014;7.170;2022-12-20T14:16:15;4.80;;;3.97;;
5357;SDS011;2702;51.014;7.170;2022-12-20T14:18:49;5.90;;;5.20;;
5357;SDS011;2702;51.014;7.170;2022-12-20T14:21:20;4.20;;;3.80;;
5357;SDS011;2702;51.014;7.170;2022-12-20T14:23:48;3.40;;;3.10;;
5357;SDS011;2702;51.014;7.170;2022-12-20T14:26:21;4.00;;;3.37;;
5357;SDS011;2702;51.014;7.170;2022-12-20T14:28:51;4.17;;;3.80;;
5357;SDS011;2702;51.014;7.170;2022-12-20T14:31:28;6.43;;;3.13;;
5357;SDS011;2702;51.014;7.170;2022-12-20T14:34:04;4.67;;;3.90;;
5357;SDS011;2702;51.014;7.170;2022-12-20T14:36:37;5.07;;;3.80;;
5357;SDS011;2702;51.014;7.170;2022-12-20T14:41:57;5.73;;;3.77;;
5357;SDS011;2702;51.014;7.170;2022-12-20T14:44:30;4.17;;;3.77;;
5357;SDS011;2702;51.014;7.170;2022-12-20T14:46:57;4.43;;;3.80;;
5357;SDS011;2702;51.014;7.170;2022-12-20T14:49:35;4.07;;;3.50;;
5357;SDS011;2702;51.014;7.170;2022-12-20T14:52:46;4.30;;;3.90;;
5357;SDS011;2702;51.014;7.170;2022-12-20T14:57:46;5.10;;;3.70;;
5357;SDS011;2702;51.014;7.170;2022-12-20T15:13:36;4.30;;;3.90;;
5357;SDS011;2702;51.014;7.170;2022-12-20T15:16:14;4.20;;;3.90;;
5357;SDS011;2702;51.014;7.170;2022-12-20T15:18:45;5.37;;;3.90;;
5357;SDS011;2702;51.014;7.170;2022-12-20T15:21:17;3.67;;;3.37;;
5357;SDS011;2702;51.014;7.170;2022-12-20T15:24:00;6.40;;;5.00;;
5357;SDS011;2702;51.014;7.170;2022-12-20T15:26:32;4.40;;;4.00;;
5357;SDS011;2702;51.014;7.170;2022-12-20T15:28:58;4.73;;;4.20;;
5357;SDS011;2702;51.014;7.170;2022-12-20T15:31:24;4.90;;;4.50;;
5357;SDS011;2702;51.014;7.170;2022-12-20T15:33:52;5.73;;;4.20;;
5357;SDS011;2702;51.014;7.170;2022-12-20T15:36:22;5.73;;;4.20;;
5357;SDS011;2702;51.014;7.170;2022-12-20T15:38:53;8.00;;;4.70;;
5357;SDS011;2702;51.014;7.170;2022-12-20T15:41:21;5.97;;;4.70;;
5357;SDS011;2702;51.014;7.170;2022-12-20T15:43:53;5.33;;;4.30;;
5357;SDS011;2702;51.014;7.170;2022-12-20T15:46:40;11.93;;;4.90;;
5357;SDS011;2702;51.014;7.170;2022-12-20T15:49:08;4.80;;;4.30;;
5357;SDS011;2702;51.014;7.170;2022-12-20T15:51:39;4.37;;;3.93;;
5357;SDS011;2702;51.014;7.170;2022-12-20T15:54:17;6.67;;;4.67;;
5357;SDS011;2702;51.014;7.170;2022-12-20T15:56:44;5.90;;;4.67;;
5357;SDS011;2702;51.014;7.170;2022-12-20T15:59:10;4.67;;;4.23;;
5357;SDS011;2702;51.014;7.170;2022-12-20T16:01:37;6.73;;;4.13;;
5357;SDS011;2702;51.014;7.170;2022-12-20T16:04:04;4.17;;;3.77;;
5357;SDS011;2702;51.014;7.170;2022-12-20T16:06:32;4.07;;;3.77;;
5357;SDS011;2702;51.014;7.170;2022-12-20T16:08:58;4.20;;;3.90;;
5357;SDS011;2702;51.014;7.170;2022-12-20T16:11:25;5.40;;;4.37;;
5357;SDS011;2702;51.014;7.170;2022-12-20T16:13:55;6.80;;;4.50;;
5357;SDS011;2702;51.014;7.170;2022-12-20T16:16:23;5.40;;;4.70;;
5357;SDS011;2702;51.014;7.170;2022-12-20T16:18:54;4.47;;;4.10;;
5357;SDS011;2702;51.014;7.170;2022-12-20T16:21:23;4.83;;;4.43;;
5357;SDS011;2702;51.014;7.170;2022-12-20T16:23:52;5.57;;;4.30;;
5357;SDS011;2702;51.014;7.170;2022-12-20T16:26:19;5.50;;;5.03;;
5357;SDS011;2702;51.014;7.170;2022-12-20T16:28:48;5.97;;;5.50;;
5357;SDS011;2702;51.014;7.170;2022-12-20T16:33:52;5.40;;;4.90;;
5357;SDS011;2702;51.014;7.170;2022-12-20T16:36:18;5.90;;;4.50;;
5357;SDS011;2702;51.014;7.170;2022-12-20T16:38:45;5.00;;;4.60;;
5357;SDS011;2702;51.014;7.170;2022-12-20T16:41:12;6.40;;;4.63;;
5357;SDS011;2702;51.014;7.170;2022-12-20T16:43:42;7.20;;;5.00;;
5357;SDS011;2702;51.014;7.170;2022-12-20T16:46:13;6.60;;;5.40;;
5357;SDS011;2702;51.014;7.170;2022-12-20T16:48:41;7.10;;;5.27;;
5357;SDS011;2702;51.014;7.170;2022-12-20T16:51:29;5.87;;;5.37;;
5357;SDS011;2702;51.014;7.170;2022-12-20T16:53:56;6.23;;;5.67;;
5357;SDS011;2702;51.014;7.170;2022-12-20T16:56:27;5.53;;;4.80;;
5357;SDS011;2702;51.014;7.170;2022-12-20T16:58:54;8.80;;;6.40;;
5357;SDS011;2702;51.014;7.170;2022-12-20T17:01:23;5.70;;;5.20;;
5357;SDS011;2702;51.014;7.170;2022-12-20T17:03:54;7.10;;;6.40;;
5357;SDS011;2702;51.014;7.170;2022-12-20T17:06:20;8.07;;;6.47;;
5357;SDS011;2702;51.014;7.170;2022-12-20T17:08:46;6.47;;;5.90;;
5357;SDS011;2702;51.014;7.170;2022-12-20T17:11:16;6.83;;;6.13;;
5357;SDS011;2702;51.014;7.170;2022-12-20T17:13:44;5.93;;;5.43;;
5357;SDS011;2702;51.014;7.170;2022-12-20T17:16:12;7.20;;;6.50;;
5357;SDS011;2702;51.014;7.170;2022-12-20T17:18:39;8.20;;;6.50;;
5357;SDS011;2702;51.014;7.170;2022-12-20T17:23:46;7.20;;;6.40;;
5357;SDS011;2702;51.014;7.170;2022-12-20T17:26:14;7.07;;;6.27;;
5357;SDS011;2702;51.014;7.170;2022-12-20T17:28:44;6.70;;;6.10;;
5357;SDS011;2702;51.014;7.170;2022-12-20T17:31:23;7.03;;;6.33;;
5357;SDS011;2702;51.014;7.170;2022-12-20T17:33:50;9.20;;;6.67;;
5357;SDS011;2702;51.014;7.170;2022-12-20T17:36:16;7.33;;;6.10;;
5357;SDS011;2702;51.014;7.170;2022-12-20T17:38:43;7.23;;;5.80;;
5357;SDS011;2702;51.014;7.170;2022-12-20T17:41:42;7.63;;;6.83;;
5357;SDS011;2702;51.014;7.170;2022-12-20T17:44:01;7.20;;;6.50;;
5357;SDS011;2702;51.014;7.170;2022-12-20T17:46:29;8.70;;;7.80;;
5357;SDS011;2702;51.014;7.170;2022-12-20T17:48:55;7.57;;;6.13;;